createdAt,value
2023-03-24T00:01:25.818Z,13.96
2023-03-24T00:10:24.246Z,13.87
2023-03-24T00:12:56.812Z,13.84
2023-03-24T00:15:26.973Z,13.80
2023-03-24T00:17:59.601Z,13.78
2023-03-24T00:20:32.533Z,13.74
2023-03-24T00:23:01.114Z,13.73
2023-03-24T00:25:36.661Z,13.69
2023-03-24T00:28:10.129Z,13.67
2023-03-24T00:30:38.880Z,13.58
2023-03-24T00:34:03.196Z,13.55
2023-03-24T00:36:31.936Z,13.47
2023-03-24T00:39:00.543Z,13.41
2023-03-24T00:41:30.561Z,13.39
2023-03-24T00:44:04.026Z,13.36
2023-03-24T00:46:33.797Z,13.35
2023-03-24T00:49:06.467Z,13.31
2023-03-24T00:51:38.137Z,13.30
2023-03-24T00:54:07.251Z,13.27
2023-03-24T00:56:41.045Z,13.23
2023-03-24T00:59:11.250Z,13.21
2023-03-24T01:01:41.705Z,13.19
2023-03-24T01:04:12.095Z,13.18
2023-03-24T01:12:51.540Z,13.14
2023-03-24T01:15:24.852Z,13.12
2023-03-24T01:17:55.970Z,13.10
2023-03-24T01:20:26.667Z,13.11
2023-03-24T01:22:59.209Z,13.12
2023-03-24T01:25:28.332Z,13.11
2023-03-24T01:27:59.415Z,13.06
2023-03-24T01:30:31.997Z,13.02
2023-03-24T01:33:00.807Z,12.96
2023-03-24T01:35:31.014Z,12.93
2023-03-24T01:38:00.410Z,12.86
2023-03-24T01:40:31.880Z,12.82
2023-03-24T01:43:03.503Z,12.77
2023-03-24T01:45:57.910Z,12.70
2023-03-24T01:48:33.171Z,12.65
2023-03-24T01:51:06.201Z,12.59
2023-03-24T01:53:37.457Z,12.55
2023-03-24T01:56:08.408Z,12.55
2023-03-24T02:01:22.238Z,12.49
2023-03-24T02:03:53.407Z,12.46
2023-03-24T02:06:27.226Z,12.40
2023-03-24T02:08:59.547Z,12.39
2023-03-24T02:11:32.721Z,12.38
2023-03-24T02:14:05.889Z,12.35
2023-03-24T02:16:50.483Z,12.33
2023-03-24T02:19:52.554Z,12.33
2023-03-24T02:22:51.552Z,12.32
2023-03-24T02:25:46.774Z,12.30
2023-03-24T02:28:32.508Z,12.28
2023-03-24T02:31:42.669Z,12.26
2023-03-24T02:34:50.485Z,12.24
2023-03-24T02:37:47.526Z,12.23
2023-03-24T02:40:36.993Z,12.24
2023-03-24T02:43:19.822Z,12.26
2023-03-24T02:46:02.284Z,12.25
2023-03-24T02:48:39.156Z,12.28
2023-03-24T02:51:15.880Z,12.26
2023-03-24T02:53:55.869Z,12.25
2023-03-24T02:56:36.356Z,12.24
2023-03-24T02:59:06.834Z,12.25
2023-03-24T03:01:41.510Z,12.25
2023-03-24T03:04:13.913Z,12.25
2023-03-24T03:06:46.912Z,12.29
2023-03-24T03:09:19.272Z,12.28
2023-03-24T03:11:51.677Z,12.29
2023-03-24T03:14:25.862Z,12.32
2023-03-24T03:17:04.381Z,12.32
2023-03-24T03:19:38.844Z,12.34
2023-03-24T03:22:16.828Z,12.31
2023-03-24T03:24:50.654Z,12.32
2023-03-24T03:27:28.225Z,12.30
2023-03-24T03:30:03.174Z,12.31
2023-03-24T03:32:35.756Z,12.35
2023-03-24T03:35:12.621Z,12.35
2023-03-24T03:37:49.683Z,12.35
2023-03-24T03:40:24.985Z,12.35
2023-03-24T03:42:55.599Z,12.37
2023-03-24T03:45:25.184Z,12.37
2023-03-24T03:47:55.550Z,12.35
2023-03-24T03:50:24.931Z,12.34
2023-03-24T03:52:54.037Z,12.33
2023-03-24T03:55:22.930Z,12.31
2023-03-24T03:57:53.175Z,12.32
2023-03-24T04:00:26.343Z,12.31
2023-03-24T04:03:17.736Z,12.31
2023-03-24T04:05:53.181Z,12.29
2023-03-24T04:08:31.540Z,12.32
2023-03-24T04:11:39.182Z,12.33
2023-03-24T04:14:21.812Z,12.38
2023-03-24T04:17:03.326Z,12.38
2023-03-24T04:19:59.104Z,12.45
2023-03-24T04:22:45.339Z,12.45
2023-03-24T04:25:23.202Z,12.48
2023-03-24T04:28:02.485Z,12.48
2023-03-24T04:30:44.748Z,12.52
2023-03-24T04:33:23.600Z,12.56
2023-03-24T04:35:59.624Z,12.60
2023-03-24T04:38:33.668Z,12.67
2023-03-24T04:41:03.399Z,12.70
2023-03-24T04:43:37.057Z,12.73
2023-03-24T04:46:09.127Z,12.79
2023-03-24T04:48:39.482Z,12.82
2023-03-24T04:51:10.930Z,12.83
2023-03-24T04:53:41.230Z,12.86
2023-03-24T04:56:32.672Z,12.90
2023-03-24T04:59:01.330Z,12.91
2023-03-24T05:01:33.093Z,12.91
2023-03-24T05:04:04.670Z,12.90
2023-03-24T05:06:37.663Z,12.93
2023-03-24T05:09:07.982Z,12.94
2023-03-24T05:11:41.261Z,12.97
2023-03-24T05:14:17.584Z,12.97
2023-03-24T05:16:49.773Z,13.02
2023-03-24T05:19:21.070Z,13.00
2023-03-24T05:21:59.447Z,13.03
2023-03-24T05:24:29.439Z,13.01
2023-03-24T05:26:59.449Z,13.01
2023-03-24T05:29:28.070Z,13.04
2023-03-24T05:32:06.008Z,13.06
2023-03-24T05:34:41.382Z,13.11
2023-03-24T05:37:23.728Z,13.18
2023-03-24T05:40:00.121Z,13.23
2023-03-24T05:48:15.333Z,13.17
2023-03-24T05:50:46.210Z,13.13
2023-03-24T05:53:15.632Z,13.10
2023-03-24T05:55:54.922Z,13.11
2023-03-24T06:01:23.705Z,13.15
2023-03-24T06:04:12.800Z,13.11
2023-03-24T06:06:55.828Z,13.17
2023-03-24T06:09:26.147Z,13.20
2023-03-24T06:12:04.440Z,13.25
2023-03-24T06:14:34.410Z,13.34
2023-03-24T06:17:03.346Z,13.40
2023-03-24T06:19:34.265Z,13.43
2023-03-24T06:22:11.215Z,13.44
2023-03-24T06:24:40.365Z,13.51
2023-03-24T06:27:10.125Z,13.56
2023-03-24T06:29:39.194Z,13.63
2023-03-24T06:32:08.581Z,13.65
2023-03-24T06:34:38.963Z,13.71
2023-03-24T06:37:09.045Z,13.74
2023-03-24T06:39:38.637Z,13.78
2023-03-24T06:42:10.179Z,13.84
2023-03-24T06:44:40.009Z,13.85
2023-03-24T06:47:08.267Z,13.89
2023-03-24T06:49:37.679Z,13.91
2023-03-24T06:52:35.168Z,14.00
2023-03-24T06:55:18.472Z,14.04
2023-03-24T06:57:51.133Z,14.10
2023-03-24T07:00:21.582Z,14.12
2023-03-24T07:02:51.194Z,14.14
2023-03-24T07:05:20.099Z,14.17
2023-03-24T07:08:16.745Z,14.24
2023-03-24T07:10:39.800Z,14.35
2023-03-24T07:13:09.094Z,14.34
2023-03-24T07:15:38.876Z,14.40
2023-03-24T07:18:08.894Z,14.42
2023-03-24T07:20:39.252Z,14.51
2023-03-24T07:23:09.671Z,14.53
2023-03-24T07:25:39.776Z,14.61
2023-03-24T07:28:08.784Z,14.60
2023-03-24T07:30:46.182Z,14.67
2023-03-24T07:33:20.976Z,14.73
2023-03-24T07:35:49.536Z,14.80
2023-03-24T07:38:19.494Z,14.81
2023-03-24T07:40:48.310Z,14.80
2023-03-24T07:43:17.293Z,14.87
2023-03-24T07:45:46.998Z,14.96
2023-03-24T07:48:15.479Z,15.04
2023-03-24T07:50:44.499Z,15.00
2023-03-24T07:53:18.784Z,15.01
2023-03-24T07:55:50.649Z,15.01
2023-03-24T07:58:19.810Z,15.02
2023-03-24T08:00:48.229Z,15.03
2023-03-24T08:03:16.739Z,15.08
2023-03-24T08:05:46.601Z,15.16
2023-03-24T08:08:29.527Z,15.19
2023-03-24T08:13:46.541Z,15.28
2023-03-24T08:16:16.168Z,15.36
2023-03-24T08:18:44.721Z,15.43
2023-03-24T08:21:13.447Z,15.44
2023-03-24T08:23:43.006Z,15.46
2023-03-24T08:26:14.564Z,15.57
2023-03-24T08:28:44.981Z,15.60
2023-03-24T08:31:15.852Z,15.70
2023-03-24T08:33:44.945Z,15.77
2023-03-24T08:36:14.165Z,15.81
2023-03-24T08:38:42.909Z,15.86
2023-03-24T08:41:13.843Z,15.79
2023-03-24T08:43:43.465Z,15.70
2023-03-24T08:46:14.071Z,15.68
2023-03-24T08:48:47.378Z,15.76
2023-03-24T08:51:19.446Z,15.68
2023-03-24T08:53:49.888Z,15.76
2023-03-24T08:56:28.892Z,15.73
2023-03-24T08:58:58.956Z,15.72
2023-03-24T09:01:28.585Z,15.72
2023-03-24T09:04:02.904Z,15.82
2023-03-24T09:06:44.702Z,15.83
2023-03-24T09:09:30.005Z,16.05
2023-03-24T09:12:18.413Z,16.14
2023-03-24T09:14:59.481Z,16.24
2023-03-24T09:17:36.153Z,16.27
2023-03-24T09:22:54.144Z,16.21
2023-03-24T09:25:25.094Z,16.21
2023-03-24T09:28:07.159Z,16.14
2023-03-24T09:30:36.509Z,16.22
2023-03-24T09:33:05.674Z,16.31
2023-03-24T09:35:35.732Z,16.41
2023-03-24T09:41:03.304Z,16.70
2023-03-24T09:43:43.168Z,16.77
2023-03-24T09:46:17.068Z,16.73
2023-03-24T09:48:51.496Z,16.74
2023-03-24T09:51:25.711Z,16.72
2023-03-24T09:54:16.124Z,16.77
2023-03-24T09:56:52.061Z,16.78
2023-03-24T09:59:37.242Z,16.82
2023-03-24T10:02:20.940Z,16.81
2023-03-24T10:04:55.020Z,16.90
2023-03-24T10:10:33.954Z,17.05
2023-03-24T10:13:30.937Z,17.09
2023-03-24T10:16:11.179Z,17.11
2023-03-24T10:18:50.827Z,17.25
2023-03-24T10:21:24.260Z,17.29
2023-03-24T10:24:00.409Z,17.29
2023-03-24T10:27:00.839Z,17.23
2023-03-24T10:49:16.737Z,17.24
2023-03-24T11:03:31.823Z,17.19
2023-03-24T11:06:03.054Z,17.22
2023-03-24T11:08:37.693Z,17.38
2023-03-24T11:11:30.538Z,17.47
2023-03-24T11:14:01.588Z,17.54
2023-03-24T11:16:35.780Z,17.60
2023-03-24T11:19:23.024Z,17.74
2023-03-24T11:21:53.928Z,17.81
2023-03-24T11:24:22.508Z,17.79
2023-03-24T11:27:03.563Z,17.82
2023-03-24T11:29:35.110Z,17.85
2023-03-24T11:32:08.763Z,17.86
2023-03-24T11:34:43.299Z,17.85
2023-03-24T11:37:14.980Z,17.82
2023-03-24T11:39:44.764Z,17.87
2023-03-24T11:42:18.065Z,17.94
2023-03-24T11:44:50.329Z,18.02
2023-03-24T11:47:30.744Z,18.13
2023-03-24T11:50:19.472Z,18.23
2023-03-24T11:52:54.833Z,18.25
2023-03-24T11:55:32.296Z,18.18
2023-03-24T11:58:07.564Z,18.08
2023-03-24T12:00:42.167Z,18.00
2023-03-24T12:03:49.296Z,17.81
2023-03-24T12:06:34.307Z,17.69
2023-03-24T12:09:12.576Z,17.70
2023-03-24T12:11:58.832Z,17.81
2023-03-24T12:14:37.094Z,17.86
2023-03-24T12:17:16.482Z,17.76
2023-03-24T12:20:16.502Z,17.66
2023-03-24T12:22:59.987Z,17.70
2023-03-24T12:25:42.288Z,17.67
2023-03-24T12:28:32.715Z,17.60
2023-03-24T12:31:17.483Z,17.61
2023-03-24T12:33:57.661Z,17.63
2023-03-24T12:36:40.012Z,17.61
2023-03-24T12:39:18.707Z,17.71
2023-03-24T12:42:04.538Z,17.79
2023-03-24T12:45:08.558Z,17.78
2023-03-24T12:48:08.337Z,17.74
2023-03-24T12:50:51.642Z,17.69
2023-03-24T12:53:37.262Z,17.60
2023-03-24T12:56:14.374Z,17.70
2023-03-24T12:58:52.115Z,17.71
2023-03-24T13:01:29.692Z,17.69
2023-03-24T13:04:07.644Z,17.70
2023-03-24T13:06:43.322Z,17.80
2023-03-24T13:09:19.530Z,17.86
2023-03-24T13:11:59.805Z,17.90
2023-03-24T13:14:33.423Z,17.95
2023-03-24T13:17:09.260Z,18.09
2023-03-24T13:19:39.464Z,18.19
2023-03-24T13:22:16.249Z,18.30
2023-03-24T13:24:47.584Z,18.32
2023-03-24T13:27:24.976Z,18.36
2023-03-24T13:30:08.284Z,18.37
2023-03-24T13:32:43.006Z,18.27
2023-03-24T13:35:24.158Z,18.14
2023-03-24T13:38:07.636Z,18.11
2023-03-24T13:40:41.892Z,18.14
2023-03-24T13:43:24.169Z,18.21
2023-03-24T13:46:05.609Z,18.08
2023-03-24T13:48:43.634Z,17.99
2023-03-24T13:51:20.460Z,17.97
2023-03-24T13:54:03.403Z,17.97
2023-03-24T13:56:48.465Z,17.89
2023-03-24T13:59:34.096Z,17.87
2023-03-24T14:02:59.729Z,18.05
2023-03-24T14:09:22.920Z,18.20
2023-03-24T14:12:31.124Z,18.34
2023-03-24T14:18:43.156Z,18.34
2023-03-24T14:21:33.069Z,18.24
2023-03-24T14:27:02.466Z,18.29
2023-03-24T14:30:02.045Z,18.34
2023-03-24T14:33:03.922Z,18.40
2023-03-24T14:35:38.858Z,18.58
2023-03-24T14:38:23.948Z,18.55
2023-03-24T14:40:56.253Z,18.76
2023-03-24T14:43:32.573Z,18.77
2023-03-24T14:46:08.548Z,18.54
2023-03-24T14:48:48.800Z,18.46
2023-03-24T14:51:40.289Z,18.47
2023-03-24T15:00:36.916Z,18.25
2023-03-24T15:06:34.469Z,18.68
2023-03-24T15:12:29.513Z,18.67
2023-03-24T15:15:11.987Z,18.62
2023-03-24T15:17:49.286Z,18.64
2023-03-24T15:20:35.579Z,18.83
2023-03-24T15:23:10.119Z,19.10
2023-03-24T15:25:49.702Z,19.36
2023-03-24T15:28:23.274Z,19.55
2023-03-24T15:30:52.270Z,19.56
2023-03-24T15:33:21.941Z,19.65
2023-03-24T15:36:11.606Z,19.63
2023-03-24T15:38:48.591Z,19.56
2023-03-24T15:41:24.858Z,19.76
2023-03-24T15:43:55.587Z,19.85
2023-03-24T15:46:47.141Z,19.59
2023-03-24T16:02:54.157Z,18.25
2023-03-24T16:05:30.604Z,18.61
2023-03-24T16:08:09.994Z,18.88
2023-03-24T16:10:43.300Z,18.99
2023-03-24T16:13:18.386Z,18.88
2023-03-24T16:15:49.715Z,18.78
2023-03-24T16:18:23.968Z,18.59
2023-03-24T16:20:53.604Z,18.35
2023-03-24T16:23:26.866Z,18.24
2023-03-24T16:31:28.395Z,17.94
2023-03-24T16:42:15.888Z,17.45
2023-03-24T16:44:43.972Z,17.23
2023-03-24T16:47:13.160Z,17.21
2023-03-24T16:49:41.424Z,17.44
2023-03-24T16:52:13.624Z,17.58
2023-03-24T16:54:43.362Z,17.77
2023-03-24T16:57:16.524Z,17.67
2023-03-24T16:59:46.523Z,17.49
2023-03-24T17:02:17.775Z,17.49
2023-03-24T17:04:47.221Z,17.57
2023-03-24T17:07:16.143Z,17.68
2023-03-24T17:09:50.725Z,17.79
2023-03-24T17:12:21.172Z,17.65
2023-03-24T17:14:53.017Z,17.57
2023-03-24T17:17:24.090Z,17.41
2023-03-24T17:25:09.924Z,16.68
2023-03-24T17:34:21.507Z,16.16
2023-03-24T17:36:55.963Z,16.02
2023-03-24T17:42:40.334Z,15.81
2023-03-24T17:45:25.573Z,15.80
2023-03-24T17:47:57.178Z,15.69
2023-03-24T17:50:42.827Z,15.67
2023-03-24T17:53:35.924Z,15.62
2023-03-24T17:56:51.988Z,15.53
2023-03-24T18:02:41.951Z,15.43
2023-03-24T18:05:14.334Z,15.45
2023-03-24T18:08:05.511Z,15.42
2023-03-24T18:10:39.118Z,15.41
2023-03-24T18:13:14.902Z,15.39
2023-03-24T18:16:06.630Z,15.45
2023-03-24T18:21:25.056Z,15.70
2023-03-24T18:23:58.238Z,15.75
2023-03-24T18:26:31.986Z,15.70
2023-03-24T18:29:04.010Z,15.59
2023-03-24T18:31:37.468Z,15.49
2023-03-24T18:34:06.321Z,15.45
2023-03-24T18:36:42.929Z,15.35
2023-03-24T18:39:14.269Z,15.27
2023-03-24T18:47:19.329Z,15.07
2023-03-24T18:49:54.782Z,14.92
2023-03-24T18:58:49.836Z,14.57
2023-03-24T19:01:23.256Z,14.54
2023-03-24T19:03:54.271Z,14.40
2023-03-24T19:06:35.433Z,14.42
2023-03-24T19:09:06.590Z,14.33
2023-03-24T19:17:15.344Z,14.24
2023-03-24T19:19:47.972Z,14.28
2023-03-24T19:22:24.276Z,14.29
2023-03-24T19:24:55.460Z,14.28
2023-03-24T19:30:31.825Z,14.32
2023-03-24T19:33:07.581Z,14.40
2023-03-24T19:35:36.907Z,14.47
2023-03-24T19:38:06.134Z,14.41
2023-03-24T19:40:40.984Z,14.43
2023-03-24T19:43:12.615Z,14.45
2023-03-24T19:45:43.271Z,14.45
2023-03-24T19:48:21.520Z,14.45
2023-03-24T19:50:53.491Z,14.44
2023-03-24T19:53:23.894Z,14.50
2023-03-24T20:31:40.909Z,14.23
2023-03-24T20:34:09.709Z,14.25
2023-03-24T20:36:39.314Z,14.26
2023-03-24T20:39:10.630Z,14.28
2023-03-24T20:41:46.134Z,14.35
2023-03-24T20:44:14.510Z,14.34
2023-03-24T20:46:46.050Z,14.31
2023-03-24T20:49:17.052Z,14.34
2023-03-24T20:51:47.661Z,14.34
2023-03-24T20:54:19.529Z,14.37
2023-03-24T20:56:49.036Z,14.46
2023-03-24T20:59:22.381Z,14.42
2023-03-24T21:01:56.887Z,14.44
2023-03-24T21:04:26.285Z,14.45
2023-03-24T21:06:58.559Z,14.43
2023-03-24T21:09:30.784Z,14.51
2023-03-24T21:12:01.407Z,14.49
2023-03-24T21:14:33.171Z,14.47
2023-03-24T21:17:07.026Z,14.42
2023-03-24T21:19:37.515Z,14.44
2023-03-24T21:22:08.196Z,14.43
2023-03-24T21:24:39.813Z,14.43
2023-03-24T21:27:08.466Z,14.39
2023-03-24T21:29:37.238Z,14.41
2023-03-24T21:32:11.665Z,14.41
2023-03-24T21:34:40.318Z,14.37
2023-03-24T21:37:15.189Z,14.40
2023-03-24T21:39:46.264Z,14.38
2023-03-24T21:42:20.238Z,14.45
2023-03-24T21:44:50.867Z,14.46
2023-03-24T21:47:26.064Z,14.42
2023-03-24T21:50:02.369Z,14.47
2023-03-24T21:52:42.247Z,14.51
2023-03-24T21:55:14.774Z,14.46
2023-03-24T22:01:09.324Z,14.47
2023-03-24T22:07:34.148Z,14.37
2023-03-24T22:16:25.598Z,14.30
2023-03-24T22:25:09.564Z,14.14
2023-03-24T22:27:39.783Z,14.13
2023-03-24T22:30:10.723Z,14.16
2023-03-24T22:32:40.834Z,14.16
2023-03-24T22:35:10.276Z,14.14
2023-03-24T22:37:38.815Z,14.19
2023-03-24T22:40:15.175Z,14.20
2023-03-24T22:42:57.371Z,14.21
2023-03-24T22:45:35.893Z,14.25
2023-03-24T22:48:08.535Z,14.28
2023-03-24T22:56:31.710Z,14.29
2023-03-24T23:02:29.879Z,14.39
2023-03-24T23:04:59.331Z,14.36
2023-03-24T23:07:30.938Z,14.37
2023-03-24T23:10:01.456Z,14.43
2023-03-24T23:12:31.930Z,14.43
2023-03-24T23:15:04.226Z,14.37
2023-03-24T23:17:33.012Z,14.41
2023-03-24T23:20:03.338Z,14.48
2023-03-24T23:22:33.191Z,14.46
2023-03-24T23:25:07.170Z,14.52
2023-03-24T23:27:40.243Z,14.51
2023-03-24T23:30:13.520Z,14.54
2023-03-24T23:32:44.608Z,14.55
2023-03-24T23:35:14.481Z,14.63
2023-03-24T23:37:43.457Z,14.63
2023-03-24T23:40:16.041Z,14.60
2023-03-24T23:42:49.008Z,14.67
2023-03-24T23:45:22.112Z,14.66
2023-03-24T23:47:53.001Z,14.74
2023-03-24T23:50:23.309Z,14.75
2023-03-24T23:52:54.916Z,14.75
2023-03-24T23:55:26.042Z,14.80
2023-03-24T23:57:58.807Z,14.81
